createdAt,value
2023-02-01T00:01:38.571Z,5.10
2023-02-01T00:04:07.193Z,5.10
2023-02-01T00:06:35.854Z,5.20
2023-02-01T00:09:04.805Z,5.20
2023-02-01T00:11:33.477Z,5.20
2023-02-01T00:14:02.169Z,5.30
2023-02-01T00:16:32.794Z,5.30
2023-02-01T00:19:03.411Z,5.30
2023-02-01T00:21:32.801Z,5.30
2023-02-01T00:24:02.274Z,5.40
2023-02-01T00:26:34.909Z,5.40
2023-02-01T00:29:04.687Z,5.40
2023-02-01T00:31:35.091Z,5.40
2023-02-01T00:34:03.790Z,5.40
2023-02-01T00:36:32.423Z,5.50
2023-02-01T00:39:01.036Z,5.50
2023-02-01T00:41:29.605Z,5.50
2023-02-01T00:43:58.437Z,5.60
2023-02-01T00:46:27.057Z,5.70
2023-02-01T00:48:57.285Z,5.70
2023-02-01T00:51:28.219Z,5.80
2023-02-01T00:53:58.358Z,5.80
2023-02-01T00:56:29.210Z,5.80
2023-02-01T00:58:57.875Z,5.80
2023-02-01T01:01:28.450Z,5.80
2023-02-01T01:04:00.795Z,5.90
2023-02-01T01:06:31.240Z,5.90
2023-02-01T01:09:01.548Z,5.90
2023-02-01T01:11:32.297Z,5.90
2023-02-01T01:14:01.945Z,5.90
2023-02-01T01:16:32.313Z,6.10
2023-02-01T01:19:03.413Z,6.00
2023-02-01T01:21:32.428Z,6.10
2023-02-01T01:24:01.376Z,6.10
2023-02-01T01:26:31.585Z,6.20
2023-02-01T01:29:01.318Z,6.30
2023-02-01T01:31:30.810Z,6.20
2023-02-01T01:34:01.080Z,6.40
2023-02-01T01:36:32.031Z,6.20
2023-02-01T01:39:00.643Z,6.20
2023-02-01T01:41:33.525Z,6.20
2023-02-01T01:44:47.431Z,6.20
2023-02-01T01:47:18.036Z,6.20
2023-02-01T01:49:47.095Z,6.20
2023-02-01T01:52:17.116Z,6.20
2023-02-01T01:54:49.061Z,6.30
2023-02-01T01:57:20.584Z,6.30
2023-02-01T01:59:54.653Z,6.30
2023-02-01T02:02:23.254Z,6.40
2023-02-01T02:04:51.788Z,6.40
2023-02-01T02:07:26.841Z,6.40
2023-02-01T02:10:00.775Z,6.50
2023-02-01T02:12:30.417Z,6.60
2023-02-01T02:14:59.159Z,6.50
2023-02-01T02:17:42.972Z,6.50
2023-02-01T02:20:41.877Z,6.80
2023-02-01T02:23:56.271Z,6.70
2023-02-01T02:26:36.881Z,6.70
2023-02-01T02:29:44.147Z,6.70
2023-02-01T02:32:46.647Z,6.80
2023-02-01T02:35:25.883Z,6.80
2023-02-01T02:38:03.114Z,6.80
2023-02-01T02:40:38.912Z,7.00
2023-02-01T02:43:31.849Z,6.80
2023-02-01T02:46:32.015Z,6.80
2023-02-01T02:49:06.644Z,6.90
2023-02-01T02:51:59.890Z,7.00
2023-02-01T02:54:47.899Z,7.00
2023-02-01T02:57:39.188Z,7.00
2023-02-01T03:00:29.477Z,7.10
2023-02-01T03:03:16.099Z,7.10
2023-02-01T03:05:46.719Z,7.10
2023-02-01T03:08:18.537Z,7.20
2023-02-01T03:10:56.286Z,7.20
2023-02-01T03:13:32.364Z,7.30
2023-02-01T03:16:05.057Z,7.20
2023-02-01T03:18:43.315Z,7.10
2023-02-01T03:21:17.950Z,7.30
2023-02-01T03:23:50.280Z,7.10
2023-02-01T03:26:21.124Z,7.10
2023-02-01T03:28:56.634Z,7.00
2023-02-01T03:31:26.174Z,7.20
2023-02-01T03:33:54.786Z,7.00
2023-02-01T03:36:31.840Z,7.00
2023-02-01T03:39:07.598Z,6.80
2023-02-01T03:41:42.380Z,7.00
2023-02-01T03:44:16.537Z,6.80
2023-02-01T03:46:50.543Z,6.80
2023-02-01T03:49:24.879Z,6.80
2023-02-01T03:51:54.288Z,6.80
2023-02-01T03:54:24.497Z,6.80
2023-02-01T03:56:54.378Z,6.70
2023-02-01T03:59:22.871Z,6.70
2023-02-01T04:01:51.711Z,6.70
2023-02-01T04:04:21.759Z,6.80
2023-02-01T04:06:54.389Z,6.80
2023-02-01T04:09:24.753Z,6.80
2023-02-01T04:11:53.226Z,6.90
2023-02-01T04:14:21.704Z,7.00
2023-02-01T04:16:50.246Z,7.00
2023-02-01T04:19:18.795Z,7.00
2023-02-01T04:21:47.256Z,7.10
2023-02-01T04:24:15.725Z,7.10
2023-02-01T04:26:45.605Z,7.30
2023-02-01T04:29:14.307Z,7.10
2023-02-01T04:31:42.812Z,7.20
2023-02-01T04:34:11.287Z,7.20
2023-02-01T04:36:39.807Z,7.30
2023-02-01T04:39:08.331Z,7.40
2023-02-01T04:41:36.860Z,7.40
2023-02-01T04:44:06.821Z,7.40
2023-02-01T04:46:35.708Z,7.40
2023-02-01T04:49:04.126Z,7.40
2023-02-01T04:51:33.365Z,7.40
2023-02-01T04:54:01.828Z,7.40
2023-02-01T04:56:30.435Z,7.40
2023-02-01T04:58:58.897Z,7.50
2023-02-01T05:01:28.762Z,7.20
2023-02-01T05:03:57.524Z,7.20
2023-02-01T05:06:26.236Z,7.10
2023-02-01T05:08:54.677Z,7.00
2023-02-01T05:11:40.665Z,7.00
2023-02-01T05:14:09.130Z,7.00
2023-02-01T05:16:38.948Z,7.00
2023-02-01T05:19:07.472Z,7.00
2023-02-01T05:21:35.917Z,7.10
2023-02-01T05:24:15.795Z,6.90
2023-02-01T05:26:44.701Z,6.90
2023-02-01T05:29:13.843Z,6.90
2023-02-01T05:31:43.821Z,6.90
2023-02-01T05:34:12.412Z,6.90
2023-02-01T05:36:40.994Z,6.90
2023-02-01T05:39:09.619Z,6.90
2023-02-01T05:41:38.473Z,7.00
2023-02-01T05:44:08.223Z,7.00
2023-02-01T05:46:37.011Z,7.00
2023-02-01T05:49:06.945Z,7.00
2023-02-01T05:51:35.418Z,7.00
2023-02-01T05:54:04.011Z,7.10
2023-02-01T05:56:32.489Z,7.10
2023-02-01T06:01:29.167Z,7.10
2023-02-01T06:03:57.644Z,7.10
2023-02-01T06:06:27.537Z,7.10
2023-02-01T06:08:56.168Z,7.10
2023-02-01T06:11:32.319Z,7.20
2023-02-01T06:14:01.917Z,7.30
2023-02-01T06:16:30.388Z,7.20
2023-02-01T06:18:59.186Z,7.30
2023-02-01T06:21:29.128Z,7.30
2023-02-01T06:23:58.706Z,7.20
2023-02-01T06:26:29.489Z,7.30
2023-02-01T06:28:58.065Z,7.30
2023-02-01T06:31:27.319Z,7.20
2023-02-01T06:33:56.013Z,7.20
2023-02-01T06:36:24.511Z,7.10
2023-02-01T06:38:54.432Z,7.10
2023-02-01T06:41:22.876Z,7.10
2023-02-01T06:43:51.333Z,7.00
2023-02-01T06:46:20.389Z,6.90
2023-02-01T06:48:50.159Z,6.80
2023-02-01T06:51:23.589Z,6.80
2023-02-01T06:53:52.139Z,6.80
2023-02-01T06:56:22.052Z,6.70
2023-02-01T06:58:50.556Z,6.70
2023-02-01T07:01:19.729Z,6.70
2023-02-01T07:03:50.879Z,6.90
2023-02-01T07:06:20.291Z,6.70
2023-02-01T07:08:48.821Z,6.80
2023-02-01T07:11:19.312Z,6.70
2023-02-01T07:13:49.165Z,6.80
2023-02-01T07:16:19.406Z,6.70
2023-02-01T07:18:48.805Z,6.80
2023-02-01T07:21:17.463Z,6.90
2023-02-01T07:23:46.027Z,6.90
2023-02-01T07:26:17.370Z,6.90
2023-02-01T07:28:47.648Z,6.90
2023-02-01T07:31:21.821Z,6.90
2023-02-01T07:33:52.507Z,6.90
2023-02-01T07:36:21.654Z,6.90
2023-02-01T07:38:50.342Z,7.10
2023-02-01T07:41:19.462Z,6.90
2023-02-01T07:43:48.027Z,6.90
2023-02-01T07:46:17.898Z,7.10
2023-02-01T07:48:46.342Z,6.90
2023-02-01T07:51:16.807Z,6.90
2023-02-01T07:53:46.204Z,6.90
2023-02-01T07:56:17.192Z,6.90
2023-02-01T07:58:49.859Z,6.90
2023-02-01T08:01:25.381Z,6.90
2023-02-01T08:03:55.740Z,7.00
2023-02-01T08:06:25.775Z,6.90
2023-02-01T08:08:55.488Z,6.90
2023-02-01T08:11:25.151Z,6.90
2023-02-01T08:13:56.342Z,7.00
2023-02-01T08:16:26.970Z,6.80
2023-02-01T08:18:56.110Z,6.90
2023-02-01T08:21:27.205Z,6.90
2023-02-01T08:23:57.231Z,6.90
2023-02-01T08:26:27.443Z,6.90
2023-02-01T08:28:57.481Z,6.90
2023-02-01T08:31:28.689Z,6.90
2023-02-01T08:33:59.081Z,6.90
2023-02-01T08:36:29.266Z,7.00
2023-02-01T08:38:58.610Z,7.00
2023-02-01T08:41:29.038Z,7.00
2023-02-01T08:43:58.548Z,7.10
2023-02-01T08:46:28.669Z,7.10
2023-02-01T08:48:57.347Z,7.10
2023-02-01T08:51:26.200Z,7.20
2023-02-01T08:53:54.677Z,7.30
2023-02-01T08:56:23.202Z,7.20
2023-02-01T08:58:51.735Z,7.30
2023-02-01T09:01:20.297Z,7.30
2023-02-01T09:03:50.405Z,7.40
2023-02-01T09:06:18.970Z,7.40
2023-02-01T09:08:47.485Z,7.50
2023-02-01T09:11:17.856Z,7.50
2023-02-01T09:13:46.999Z,7.60
2023-02-01T09:16:15.710Z,7.60
2023-02-01T09:18:56.257Z,7.70
2023-02-01T09:21:34.088Z,7.80
2023-02-01T09:24:03.162Z,7.90
2023-02-01T09:26:32.922Z,8.00
2023-02-01T09:29:02.277Z,8.10
2023-02-01T09:31:31.172Z,8.40
2023-02-01T09:33:59.741Z,8.40
2023-02-01T09:36:30.212Z,8.50
2023-02-01T09:39:01.801Z,8.50
2023-02-01T09:41:48.371Z,8.60
2023-02-01T09:44:42.471Z,8.60
2023-02-01T09:47:15.324Z,8.50
2023-02-01T09:49:52.367Z,8.50
2023-02-01T09:52:27.685Z,8.50
2023-02-01T09:55:01.865Z,8.50
2023-02-01T09:57:42.348Z,8.60
2023-02-01T10:00:19.856Z,8.50
2023-02-01T10:02:48.416Z,8.50
2023-02-01T10:05:21.305Z,8.50
2023-02-01T10:08:03.131Z,8.40
2023-02-01T10:10:40.351Z,8.40
2023-02-01T10:13:23.992Z,8.30
2023-02-01T10:16:07.444Z,8.30
2023-02-01T10:19:01.849Z,8.30
2023-02-01T10:21:42.704Z,8.20
2023-02-01T10:24:23.454Z,8.10
2023-02-01T10:26:59.983Z,8.00
2023-02-01T10:29:35.257Z,7.80
2023-02-01T10:32:04.869Z,7.70
2023-02-01T10:34:36.945Z,7.60
2023-02-01T10:37:20.473Z,7.50
2023-02-01T10:39:50.052Z,7.20
2023-02-01T10:42:22.297Z,7.20
2023-02-01T10:44:51.115Z,7.10
2023-02-01T10:47:19.574Z,7.20
2023-02-01T10:49:56.572Z,7.10
2023-02-01T10:52:35.760Z,7.10
2023-02-01T10:55:29.617Z,7.10
2023-02-01T10:58:00.642Z,7.20
2023-02-01T11:00:30.307Z,7.20
2023-02-01T11:02:58.813Z,7.30
2023-02-01T11:05:27.444Z,7.40
2023-02-01T11:07:57.110Z,7.40
2023-02-01T11:10:39.787Z,7.60
2023-02-01T11:13:17.146Z,7.60
2023-02-01T11:15:47.502Z,7.60
2023-02-01T11:18:20.564Z,7.70
2023-02-01T11:20:52.822Z,7.80
2023-02-01T11:23:23.554Z,7.80
2023-02-01T11:25:55.172Z,7.80
2023-02-01T11:28:27.857Z,7.70
2023-02-01T11:30:58.997Z,7.70
2023-02-01T11:33:32.118Z,7.80
2023-02-01T11:36:00.756Z,7.80
2023-02-01T11:38:32.001Z,8.00
2023-02-01T11:41:15.256Z,7.80
2023-02-01T11:43:59.512Z,7.90
2023-02-01T11:46:32.203Z,8.00
2023-02-01T11:49:21.356Z,8.10
2023-02-01T11:52:00.309Z,8.10
2023-02-01T11:54:45.928Z,8.20
2023-02-01T11:57:26.576Z,8.30
2023-02-01T12:00:10.614Z,8.40
2023-02-01T12:03:07.760Z,8.40
2023-02-01T12:05:49.789Z,8.60
2023-02-01T12:08:31.432Z,8.70
2023-02-01T12:11:18.647Z,8.70
2023-02-01T12:13:55.768Z,8.80
2023-02-01T12:16:33.808Z,8.80
2023-02-01T12:19:23.071Z,8.90
2023-02-01T12:22:06.518Z,9.00
2023-02-01T12:24:53.656Z,9.00
2023-02-01T12:27:55.076Z,9.10
2023-02-01T12:30:48.228Z,9.10
2023-02-01T12:33:25.976Z,9.10
2023-02-01T12:36:08.188Z,9.10
2023-02-01T12:38:55.545Z,9.10
2023-02-01T12:41:43.340Z,9.10
2023-02-01T12:44:21.733Z,9.00
2023-02-01T12:46:54.721Z,9.00
2023-02-01T12:49:39.200Z,9.00
2023-02-01T12:52:12.830Z,9.00
2023-02-01T12:54:49.277Z,8.90
2023-02-01T12:57:25.372Z,8.90
2023-02-01T13:00:01.466Z,8.90
2023-02-01T13:02:39.953Z,8.90
2023-02-01T13:05:18.128Z,8.90
2023-02-01T13:07:52.569Z,9.00
2023-02-01T13:10:26.363Z,9.00
2023-02-01T13:13:01.421Z,9.10
2023-02-01T13:15:33.425Z,9.10
2023-02-01T13:18:06.013Z,9.10
2023-02-01T13:20:39.576Z,9.20
2023-02-01T13:23:17.934Z,9.00
2023-02-01T13:25:50.573Z,9.00
2023-02-01T13:28:22.201Z,9.00
2023-02-01T13:31:30.706Z,9.10
2023-02-01T13:34:24.407Z,8.90
2023-02-01T13:37:14.959Z,9.00
2023-02-01T13:40:20.219Z,8.90
2023-02-01T13:42:53.228Z,8.80
2023-02-01T13:45:24.096Z,8.80
2023-02-01T13:47:57.114Z,8.90
2023-02-01T13:50:29.665Z,8.80
2023-02-01T13:53:01.898Z,8.80
2023-02-01T13:55:36.221Z,8.80
2023-02-01T13:58:23.159Z,8.80
2023-02-01T14:00:52.988Z,8.90
2023-02-01T14:03:23.586Z,8.90
2023-02-01T14:06:03.068Z,9.00
2023-02-01T14:08:45.754Z,9.00
2023-02-01T14:11:35.799Z,9.00
2023-02-01T14:14:47.000Z,9.00
2023-02-01T14:17:37.146Z,9.00
2023-02-01T14:20:49.994Z,9.10
2023-02-01T14:23:22.177Z,9.00
2023-02-01T14:26:08.201Z,9.00
2023-02-01T14:28:42.095Z,9.00
2023-02-01T14:31:36.385Z,9.00
2023-02-01T14:34:13.585Z,9.00
2023-02-01T14:36:45.756Z,9.00
2023-02-01T14:39:33.271Z,9.00
2023-02-01T14:42:08.179Z,9.00
2023-02-01T14:44:38.941Z,8.90
2023-02-01T14:47:37.149Z,9.00
2023-02-01T14:50:15.500Z,8.90
2023-02-01T14:52:47.542Z,8.90
2023-02-01T14:55:20.608Z,8.90
2023-02-01T14:57:54.729Z,8.90
2023-02-01T15:00:27.282Z,9.00
2023-02-01T15:02:57.203Z,8.90
2023-02-01T15:05:31.540Z,8.90
2023-02-01T15:08:05.060Z,8.80
2023-02-01T15:10:36.183Z,8.80
2023-02-01T15:13:06.031Z,8.70
2023-02-01T15:15:37.316Z,8.70
2023-02-01T15:18:05.959Z,8.60
2023-02-01T15:20:35.023Z,8.60
2023-02-01T15:23:05.537Z,8.60
2023-02-01T15:25:36.390Z,8.70
2023-02-01T15:28:07.158Z,8.70
2023-02-01T15:30:37.082Z,8.70
2023-02-01T15:33:10.599Z,8.70
2023-02-01T15:35:44.376Z,8.80
2023-02-01T15:38:41.347Z,8.80
2023-02-01T15:41:14.208Z,8.80
2023-02-01T15:43:48.251Z,8.80
2023-02-01T15:46:19.848Z,8.90
2023-02-01T15:48:51.878Z,8.90
2023-02-01T15:51:22.707Z,8.90
2023-02-01T15:53:54.731Z,8.90
2023-02-01T15:56:25.757Z,8.90
2023-02-01T15:58:59.669Z,8.90
2023-02-01T16:01:28.144Z,8.90
2023-02-01T16:04:17.808Z,8.90
2023-02-01T16:06:52.180Z,8.90
2023-02-01T16:09:22.335Z,8.90
2023-02-01T16:11:56.487Z,9.00
2023-02-01T16:14:26.955Z,8.90
2023-02-01T16:16:57.728Z,8.90
2023-02-01T16:19:29.149Z,8.90
2023-02-01T16:21:59.236Z,9.00
2023-02-01T16:24:27.737Z,9.00
2023-02-01T16:26:56.177Z,8.90
2023-02-01T16:29:26.146Z,9.00
2023-02-01T16:31:54.800Z,8.90
2023-02-01T16:34:23.323Z,8.90
2023-02-01T16:36:53.157Z,8.90
2023-02-01T16:39:22.265Z,8.90
2023-02-01T16:41:51.084Z,9.00
2023-02-01T16:44:19.570Z,9.00
2023-02-01T16:46:50.287Z,9.00
2023-02-01T16:49:21.462Z,9.10
2023-02-01T16:51:51.198Z,9.00
2023-02-01T16:54:20.168Z,9.00
2023-02-01T16:56:49.094Z,9.10
2023-02-01T16:59:17.646Z,9.10
2023-02-01T17:01:46.136Z,9.00
2023-02-01T17:04:17.451Z,9.10
2023-02-01T17:06:48.149Z,9.10
2023-02-01T17:09:16.833Z,9.10
2023-02-01T17:11:45.280Z,9.10
2023-02-01T17:14:18.613Z,9.10
2023-02-01T17:16:49.243Z,9.10
2023-02-01T17:19:24.042Z,9.10
2023-02-01T17:21:56.582Z,9.10
2023-02-01T17:24:30.693Z,9.10
2023-02-01T17:27:05.093Z,9.10
2023-02-01T17:29:33.555Z,9.10
2023-02-01T17:32:03.045Z,9.10
2023-02-01T17:34:33.644Z,9.00
2023-02-01T17:37:02.098Z,9.10
2023-02-01T17:39:47.963Z,9.10
2023-02-01T17:42:16.509Z,9.10
2023-02-01T17:44:44.931Z,9.10
2023-02-01T17:47:13.432Z,9.10
2023-02-01T17:49:43.195Z,9.20
2023-02-01T17:52:18.108Z,9.10
2023-02-01T17:54:47.715Z,9.10
2023-02-01T17:57:16.901Z,9.10
2023-02-01T17:59:45.390Z,9.10
2023-02-01T18:02:20.487Z,9.20
2023-02-01T18:04:51.868Z,9.20
2023-02-01T18:07:20.466Z,9.20
2023-02-01T18:09:48.968Z,9.10
2023-02-01T18:12:25.422Z,9.10
2023-02-01T18:14:53.857Z,9.20
2023-02-01T18:17:22.293Z,9.30
2023-02-01T18:19:52.261Z,9.20
2023-02-01T18:22:25.108Z,9.20
2023-02-01T18:24:53.555Z,9.20
2023-02-01T18:27:22.077Z,9.20
2023-02-01T18:29:50.574Z,9.20
2023-02-01T18:32:19.016Z,9.20
2023-02-01T18:34:47.492Z,9.20
2023-02-01T18:37:17.546Z,9.20
2023-02-01T18:39:46.008Z,9.20
2023-02-01T18:42:14.502Z,9.20
2023-02-01T18:44:43.032Z,9.20
2023-02-01T18:47:11.499Z,9.20
2023-02-01T18:49:39.969Z,9.30
2023-02-01T18:52:08.440Z,9.20
2023-02-01T18:54:44.381Z,9.20
2023-02-01T18:57:18.661Z,9.20
2023-02-01T18:59:47.126Z,9.20
2023-02-01T19:02:16.038Z,9.20
2023-02-01T19:04:44.611Z,9.20
2023-02-01T19:07:13.112Z,9.20
2023-02-01T19:09:42.923Z,9.20
2023-02-01T19:12:11.620Z,9.20
2023-02-01T19:14:40.060Z,9.20
2023-02-01T19:17:08.477Z,9.20
2023-02-01T19:19:37.089Z,9.20
2023-02-01T19:22:05.639Z,9.20
2023-02-01T19:24:34.156Z,9.20
2023-02-01T19:27:04.092Z,9.20
2023-02-01T19:29:33.073Z,9.20
2023-02-01T19:32:01.612Z,9.20
2023-02-01T19:34:30.173Z,9.20
2023-02-01T19:36:58.656Z,9.10
2023-02-01T19:39:27.296Z,9.20
2023-02-01T19:41:55.788Z,9.20
2023-02-01T19:44:26.096Z,9.20
2023-02-01T19:46:54.580Z,9.20
2023-02-01T19:49:23.165Z,9.20
2023-02-01T19:51:51.654Z,9.10
2023-02-01T19:54:20.749Z,9.10
2023-02-01T19:56:51.058Z,9.20
2023-02-01T19:59:22.871Z,9.20
2023-02-01T20:01:52.910Z,9.20
2023-02-01T20:04:22.177Z,9.20
2023-02-01T20:06:50.822Z,9.20
2023-02-01T20:09:20.660Z,9.20
2023-02-01T20:11:49.577Z,9.10
2023-02-01T20:14:18.384Z,9.10
2023-02-01T20:16:46.900Z,9.10
2023-02-01T20:19:16.968Z,9.10
2023-02-01T20:21:46.670Z,9.10
2023-02-01T20:24:17.189Z,9.00
2023-02-01T20:26:47.651Z,9.00
2023-02-01T20:29:17.372Z,9.00
2023-02-01T20:31:46.842Z,8.90
2023-02-01T20:34:17.177Z,8.90
2023-02-01T20:36:45.659Z,8.90
2023-02-01T20:39:14.683Z,9.00
2023-02-01T20:41:43.553Z,9.00
2023-02-01T20:44:11.995Z,9.20
2023-02-01T20:46:40.525Z,9.00
2023-02-01T20:49:08.994Z,9.10
2023-02-01T20:51:38.840Z,9.10
2023-02-01T20:54:07.844Z,9.10
2023-02-01T20:56:36.504Z,9.10
2023-02-01T20:59:10.601Z,9.20
2023-02-01T21:01:52.784Z,9.20
2023-02-01T21:04:23.431Z,9.20
2023-02-01T21:06:53.366Z,9.20
2023-02-01T21:09:21.912Z,9.20
2023-02-01T21:11:50.418Z,9.30
2023-02-01T21:14:20.157Z,9.20
2023-02-01T21:16:49.121Z,9.20
2023-02-01T21:19:19.296Z,9.20
2023-02-01T21:21:47.824Z,9.20
2023-02-01T21:24:17.757Z,9.20
2023-02-01T21:26:46.563Z,9.30
2023-02-01T21:29:16.303Z,9.30
2023-02-01T21:31:44.997Z,9.30
2023-02-01T21:34:13.545Z,9.30
2023-02-01T21:36:41.982Z,9.30
2023-02-01T21:39:11.495Z,9.30
2023-02-01T21:41:58.516Z,9.40
2023-02-01T21:44:26.965Z,9.30
2023-02-01T21:46:56.314Z,9.30
2023-02-01T21:49:26.065Z,9.30
2023-02-01T21:51:54.540Z,9.30
2023-02-01T21:54:23.011Z,9.20
2023-02-01T21:56:53.249Z,9.40
2023-02-01T21:59:21.732Z,9.30
2023-02-01T22:01:50.225Z,9.30
2023-02-01T22:04:18.696Z,9.30
2023-02-01T22:06:47.242Z,9.20
2023-02-01T22:09:18.868Z,9.20
2023-02-01T22:11:47.859Z,9.20
2023-02-01T22:14:18.256Z,9.10
2023-02-01T22:16:46.994Z,9.00
2023-02-01T22:19:16.005Z,9.10
2023-02-01T22:21:46.056Z,8.80
2023-02-01T22:24:17.047Z,8.70
2023-02-01T22:26:46.000Z,8.60
2023-02-01T22:29:15.440Z,8.50
2023-02-01T22:31:45.356Z,8.40
2023-02-01T22:34:15.453Z,8.40
2023-02-01T22:36:44.349Z,8.30
2023-02-01T22:39:12.839Z,8.30
2023-02-01T22:41:41.468Z,8.30
2023-02-01T22:44:10.072Z,8.20
2023-02-01T22:46:38.546Z,8.20
2023-02-01T22:49:08.357Z,8.20
2023-02-01T22:51:36.870Z,8.00
2023-02-01T22:54:05.463Z,8.10
2023-02-01T22:56:35.894Z,8.00
2023-02-01T22:59:07.635Z,7.90
2023-02-01T23:01:36.476Z,7.90
2023-02-01T23:04:06.692Z,7.80
2023-02-01T23:06:36.811Z,7.80
2023-02-01T23:09:11.184Z,7.80
2023-02-01T23:11:40.615Z,7.80
2023-02-01T23:14:09.668Z,7.70
2023-02-01T23:16:39.103Z,7.60
2023-02-01T23:19:08.002Z,7.70
2023-02-01T23:21:38.339Z,7.80
2023-02-01T23:24:10.045Z,7.70
2023-02-01T23:26:39.607Z,7.70
2023-02-01T23:29:08.095Z,7.70
2023-02-01T23:31:37.113Z,7.70
2023-02-01T23:34:05.887Z,7.70
2023-02-01T23:36:34.422Z,7.70
2023-02-01T23:39:04.391Z,7.70
2023-02-01T23:41:32.865Z,7.70
2023-02-01T23:44:01.648Z,7.70
2023-02-01T23:46:32.812Z,7.70
2023-02-01T23:49:02.401Z,7.70
2023-02-01T23:51:31.569Z,7.70
2023-02-01T23:54:00.476Z,7.70
2023-02-01T23:56:33.067Z,7.60
2023-02-01T23:59:02.643Z,7.70
